createdAt,value
2022-12-08T00:01:43.786Z,5.13
2022-12-08T00:05:04.965Z,4.17
2022-12-08T00:08:28.264Z,4.70
2022-12-08T00:11:30.322Z,5.50
2022-12-08T00:14:34.541Z,6.37
2022-12-08T00:17:36.564Z,6.40
2022-12-08T00:20:38.422Z,6.40
2022-12-08T00:23:40.416Z,6.60
2022-12-08T00:26:42.924Z,6.37
2022-12-08T00:29:46.711Z,5.63
2022-12-08T00:32:48.562Z,5.77
2022-12-08T00:35:50.626Z,5.07
2022-12-08T00:38:52.879Z,5.33
2022-12-08T00:42:13.165Z,5.97
2022-12-08T00:45:15.165Z,5.90
2022-12-08T00:48:17.067Z,5.60
2022-12-08T00:51:18.969Z,5.93
2022-12-08T00:54:24.013Z,5.37
2022-12-08T00:57:26.054Z,5.17
2022-12-08T01:00:28.873Z,5.27
2022-12-08T01:03:30.799Z,5.83
2022-12-08T01:06:33.012Z,5.20
2022-12-08T01:09:35.468Z,4.90
2022-12-08T01:12:37.483Z,4.73
2022-12-08T01:15:39.336Z,4.70
2022-12-08T01:18:41.191Z,4.57
2022-12-08T01:21:43.799Z,4.40
2022-12-08T01:24:45.884Z,3.93
2022-12-08T01:27:47.818Z,4.47
2022-12-08T01:30:49.972Z,4.60
2022-12-08T01:33:52.292Z,4.30
2022-12-08T01:36:54.197Z,3.57
2022-12-08T01:39:56.046Z,4.47
2022-12-08T01:42:58.039Z,3.97
2022-12-08T01:45:59.893Z,4.57
2022-12-08T01:49:08.650Z,5.30
2022-12-08T01:52:41.181Z,4.67
2022-12-08T01:55:47.468Z,5.53
2022-12-08T01:58:51.677Z,5.63
2022-12-08T02:01:53.787Z,4.67
2022-12-08T02:04:55.729Z,5.10
2022-12-08T02:07:58.735Z,6.20
2022-12-08T02:11:00.907Z,5.23
2022-12-08T02:14:05.211Z,4.83
2022-12-08T02:17:41.519Z,5.73
2022-12-08T02:20:57.431Z,5.40
2022-12-08T02:24:11.435Z,5.00
2022-12-08T02:27:19.439Z,5.47
2022-12-08T02:30:31.113Z,5.93
2022-12-08T02:33:45.246Z,5.63
2022-12-08T02:37:16.746Z,6.13
2022-12-08T02:40:30.971Z,5.53
2022-12-08T02:43:42.962Z,5.60
2022-12-08T02:47:01.893Z,5.87
2022-12-08T02:50:04.947Z,4.30
2022-12-08T02:56:16.986Z,3.23
2022-12-08T02:59:44.992Z,4.90
2022-12-08T03:03:20.851Z,4.57
2022-12-08T03:06:43.466Z,4.73
2022-12-08T03:09:53.068Z,4.97
2022-12-08T03:13:04.316Z,4.90
2022-12-08T03:16:08.720Z,4.50
2022-12-08T03:19:14.746Z,5.07
2022-12-08T03:22:22.139Z,5.97
2022-12-08T03:25:27.589Z,4.83
2022-12-08T03:28:29.702Z,5.17
2022-12-08T03:31:34.520Z,4.60
2022-12-08T03:34:37.516Z,4.73
2022-12-08T03:37:41.451Z,4.90
2022-12-08T03:40:43.980Z,3.83
2022-12-08T03:43:54.893Z,3.90
2022-12-08T03:46:56.865Z,2.97
2022-12-08T03:49:58.820Z,3.07
2022-12-08T03:53:00.808Z,3.40
2022-12-08T03:56:06.272Z,3.57
2022-12-08T03:59:08.623Z,3.47
2022-12-08T04:02:10.946Z,3.70
2022-12-08T04:05:12.860Z,3.20
2022-12-08T04:08:15.021Z,3.27
2022-12-08T04:11:18.291Z,2.73
2022-12-08T04:14:20.302Z,3.00
2022-12-08T04:17:22.208Z,3.13
2022-12-08T04:20:24.141Z,3.00
2022-12-08T04:23:26.058Z,2.80
2022-12-08T04:26:28.887Z,2.80
2022-12-08T04:29:30.728Z,3.57
2022-12-08T04:32:32.852Z,2.97
2022-12-08T04:35:34.763Z,2.43
2022-12-08T04:38:36.923Z,2.13
2022-12-08T04:41:39.356Z,3.00
2022-12-08T04:44:41.308Z,2.70
2022-12-08T04:47:43.483Z,2.83
2022-12-08T04:50:46.262Z,3.50
2022-12-08T04:53:48.407Z,2.63
2022-12-08T04:56:50.346Z,2.83
2022-12-08T04:59:52.247Z,2.70
2022-12-08T05:02:54.541Z,2.67
2022-12-08T05:05:56.603Z,3.00
2022-12-08T05:08:58.618Z,3.33
2022-12-08T05:12:00.582Z,2.40
2022-12-08T05:15:04.676Z,2.57
2022-12-08T05:18:07.751Z,2.90
2022-12-08T05:21:10.215Z,2.87
2022-12-08T05:24:12.168Z,3.27
2022-12-08T05:27:14.885Z,2.73
2022-12-08T05:30:16.871Z,3.23
2022-12-08T05:33:22.368Z,2.40
2022-12-08T05:36:24.268Z,2.80
2022-12-08T05:39:26.271Z,2.60
2022-12-08T05:42:28.313Z,2.13
2022-12-08T05:45:30.346Z,2.00
2022-12-08T05:48:32.871Z,2.50
2022-12-08T05:51:34.798Z,2.33
2022-12-08T05:54:36.900Z,2.53
2022-12-08T05:57:38.798Z,2.20
2022-12-08T06:00:41.448Z,2.03
2022-12-08T06:03:44.115Z,1.87
2022-12-08T06:06:45.979Z,2.00
2022-12-08T06:09:47.999Z,1.80
2022-12-08T06:12:49.881Z,2.80
2022-12-08T06:15:51.874Z,2.33
2022-12-08T06:18:54.263Z,2.20
2022-12-08T06:21:56.477Z,2.07
2022-12-08T06:24:58.404Z,2.90
2022-12-08T06:28:00.395Z,2.33
2022-12-08T06:31:08.706Z,2.77
2022-12-08T06:34:10.737Z,2.50
2022-12-08T06:37:12.526Z,2.73
2022-12-08T06:40:14.856Z,3.30
2022-12-08T06:43:16.641Z,2.97
2022-12-08T06:46:23.171Z,2.33
2022-12-08T06:49:25.048Z,2.37
2022-12-08T06:52:26.912Z,2.13
2022-12-08T06:58:52.981Z,3.33
2022-12-08T07:01:55.258Z,2.50
2022-12-08T07:04:57.302Z,3.03
2022-12-08T07:07:59.326Z,3.20
2022-12-08T07:11:08.202Z,2.83
2022-12-08T07:14:11.247Z,2.43
2022-12-08T07:17:14.560Z,2.97
2022-12-08T07:20:16.817Z,2.40
2022-12-08T07:23:18.753Z,2.20
2022-12-08T07:26:20.633Z,2.17
2022-12-08T07:29:26.240Z,2.30
2022-12-08T07:32:28.312Z,2.20
2022-12-08T07:35:30.690Z,2.27
2022-12-08T07:38:32.601Z,2.10
2022-12-08T07:41:34.619Z,1.90
2022-12-08T07:44:36.461Z,2.10
2022-12-08T07:47:38.692Z,2.30
2022-12-08T07:50:41.529Z,2.30
2022-12-08T07:53:53.152Z,2.27
2022-12-08T07:56:58.165Z,2.13
2022-12-08T08:00:00.605Z,3.23
2022-12-08T08:03:03.108Z,2.17
2022-12-08T08:06:05.740Z,1.93
2022-12-08T08:09:09.116Z,2.17
2022-12-08T08:12:30.304Z,2.10
2022-12-08T08:15:33.156Z,2.17
2022-12-08T08:18:36.601Z,1.80
2022-12-08T08:21:46.469Z,1.70
2022-12-08T08:24:48.579Z,2.27
2022-12-08T08:27:50.480Z,2.27
2022-12-08T08:30:52.548Z,2.10
2022-12-08T08:33:54.461Z,2.13
2022-12-08T08:36:56.422Z,2.20
2022-12-08T08:39:58.344Z,2.17
2022-12-08T08:43:05.822Z,1.83
2022-12-08T08:46:09.218Z,2.00
2022-12-08T08:49:11.477Z,2.10
2022-12-08T08:52:13.607Z,2.07
2022-12-08T08:55:15.790Z,1.90
2022-12-08T08:58:18.216Z,1.90
2022-12-08T09:01:23.119Z,2.13
2022-12-08T09:04:25.842Z,2.17
2022-12-08T09:07:28.098Z,1.67
2022-12-08T09:10:30.077Z,2.03
2022-12-08T09:13:31.964Z,2.17
2022-12-08T09:16:38.928Z,2.60
2022-12-08T09:19:44.389Z,2.50
2022-12-08T09:22:46.504Z,2.27
2022-12-08T09:25:48.480Z,2.17
2022-12-08T09:28:51.134Z,2.80
2022-12-08T09:31:54.833Z,2.17
2022-12-08T09:34:56.756Z,2.93
2022-12-08T09:37:58.720Z,2.73
2022-12-08T09:41:02.673Z,2.43
2022-12-08T09:44:48.466Z,2.77
2022-12-08T09:48:13.213Z,2.83
2022-12-08T09:51:16.923Z,2.87
2022-12-08T09:54:26.017Z,2.53
2022-12-08T09:57:28.535Z,2.80
2022-12-08T10:00:31.082Z,3.07
2022-12-08T10:03:33.943Z,2.53
2022-12-08T11:47:35.407Z,2.83
2022-12-08T11:50:54.487Z,2.27
2022-12-08T11:54:28.795Z,2.23
2022-12-08T11:57:30.866Z,2.60
2022-12-08T12:00:33.262Z,2.30
2022-12-08T12:03:41.537Z,2.43
2022-12-08T12:07:06.093Z,3.00
2022-12-08T12:10:08.155Z,2.13
2022-12-08T12:13:15.274Z,3.03
2022-12-08T12:16:35.205Z,4.00
2022-12-08T12:19:38.616Z,4.23
2022-12-08T12:22:41.063Z,4.50
2022-12-08T12:26:03.081Z,2.20
2022-12-08T12:29:13.426Z,1.80
2022-12-08T12:32:15.842Z,1.50
2022-12-08T12:35:30.218Z,1.83
2022-12-08T12:38:53.677Z,2.40
2022-12-08T12:42:00.972Z,1.90
2022-12-08T12:45:25.739Z,3.63
2022-12-08T12:48:28.571Z,2.50
2022-12-08T12:51:46.249Z,1.70
2022-12-08T12:54:51.094Z,3.03
2022-12-08T12:57:56.035Z,2.80
2022-12-08T13:01:13.478Z,2.83
2022-12-08T13:04:16.543Z,2.33
2022-12-08T13:07:24.155Z,1.90
2022-12-08T13:10:33.860Z,2.90
2022-12-08T13:13:41.266Z,2.73
2022-12-08T13:16:43.153Z,2.37
2022-12-08T13:19:51.734Z,1.47
2022-12-08T13:22:53.956Z,1.73
2022-12-08T13:26:21.389Z,1.70
2022-12-08T13:29:25.008Z,1.50
2022-12-08T13:32:48.836Z,1.80
2022-12-08T13:36:09.516Z,1.77
2022-12-08T13:39:30.528Z,2.00
2022-12-08T13:43:15.196Z,1.60
2022-12-08T13:57:11.581Z,1.93
2022-12-08T14:00:19.885Z,2.03
2022-12-08T14:03:21.901Z,1.80
2022-12-08T14:06:29.238Z,1.80
2022-12-08T14:09:36.182Z,1.83
2022-12-08T14:12:38.231Z,1.60
2022-12-08T14:15:40.894Z,2.97
2022-12-08T14:18:42.965Z,2.20
2022-12-08T14:22:14.237Z,2.40
2022-12-08T14:25:17.511Z,3.10
2022-12-08T14:28:20.054Z,5.10
2022-12-08T14:31:23.083Z,5.83
2022-12-08T14:34:25.372Z,5.07
2022-12-08T14:37:30.537Z,3.90
2022-12-08T14:40:35.776Z,3.80
2022-12-08T14:43:38.719Z,3.70
2022-12-08T14:47:18.966Z,3.03
2022-12-08T14:50:54.608Z,2.43
2022-12-08T14:54:09.935Z,2.23
2022-12-08T14:57:14.207Z,2.20
2022-12-08T15:00:23.619Z,2.00
2022-12-08T15:03:28.246Z,2.80
2022-12-08T15:06:30.091Z,2.20
2022-12-08T15:09:34.971Z,1.80
2022-12-08T15:12:37.202Z,3.50
2022-12-08T15:16:22.691Z,3.93
2022-12-08T15:19:29.874Z,4.23
2022-12-08T15:22:32.066Z,6.67
2022-12-08T15:25:35.312Z,7.77
2022-12-08T15:28:37.407Z,2.63
2022-12-08T15:31:39.915Z,3.03
2022-12-08T15:34:41.950Z,6.67
2022-12-08T15:37:43.823Z,4.53
2022-12-08T15:40:45.760Z,3.13
2022-12-08T15:43:47.611Z,2.53
2022-12-08T15:46:50.358Z,2.30
2022-12-08T15:49:53.321Z,3.80
2022-12-08T15:52:55.201Z,5.00
2022-12-08T15:56:26.256Z,8.37
2022-12-08T15:59:21.758Z,4.57
2022-12-08T16:02:25.266Z,2.73
2022-12-08T16:05:44.457Z,2.90
2022-12-08T16:09:00.481Z,1.83
2022-12-08T16:13:26.875Z,1.83
2022-12-08T16:16:00.888Z,2.07
2022-12-08T16:19:04.583Z,24.50
2022-12-08T16:25:46.109Z,10.17
2022-12-08T16:28:54.275Z,4.80
2022-12-08T16:31:56.818Z,3.40
2022-12-08T16:34:58.907Z,3.80
2022-12-08T16:38:01.669Z,2.47
2022-12-08T16:41:22.398Z,1.97
2022-12-08T16:44:24.341Z,1.83
2022-12-08T16:47:27.343Z,3.10
2022-12-08T16:50:31.121Z,3.90
2022-12-08T16:53:33.029Z,4.77
2022-12-08T16:56:35.057Z,2.90
2022-12-08T16:59:38.387Z,2.20
2022-12-08T17:02:40.343Z,1.90
2022-12-08T17:05:42.990Z,2.40
2022-12-08T17:08:46.163Z,2.30
2022-12-08T17:11:48.120Z,2.33
2022-12-08T17:14:50.577Z,1.80
2022-12-08T17:17:52.992Z,4.27
2022-12-08T17:21:00.815Z,4.90
2022-12-08T17:24:06.099Z,3.07
2022-12-08T17:27:08.518Z,2.00
2022-12-08T17:30:12.775Z,2.23
2022-12-08T17:33:14.728Z,2.50
2022-12-08T17:36:19.142Z,1.77
2022-12-08T17:39:23.228Z,1.70
2022-12-08T17:42:34.357Z,1.50
2022-12-08T17:45:50.890Z,1.27
2022-12-08T17:48:56.099Z,1.17
2022-12-08T17:52:04.437Z,1.53
2022-12-08T17:55:08.408Z,2.03
2022-12-08T17:58:13.270Z,2.03
2022-12-08T18:01:15.954Z,2.83
2022-12-08T18:04:18.659Z,2.70
2022-12-08T18:07:22.410Z,2.00
2022-12-08T18:10:25.083Z,1.57
2022-12-08T18:13:27.382Z,1.50
2022-12-08T18:16:29.716Z,1.37
2022-12-08T18:19:31.761Z,0.90
2022-12-08T18:22:33.880Z,1.37
2022-12-08T18:25:36.845Z,1.80
2022-12-08T18:28:40.842Z,2.10
2022-12-08T18:31:46.693Z,2.60
2022-12-08T18:34:50.408Z,2.20
2022-12-08T18:37:57.861Z,1.70
2022-12-08T18:41:24.638Z,1.60
2022-12-08T18:44:26.590Z,1.70
2022-12-08T18:47:29.118Z,2.63
2022-12-08T18:50:31.561Z,2.20
2022-12-08T18:53:34.164Z,2.40
2022-12-08T18:56:43.312Z,1.90
2022-12-08T18:59:45.883Z,1.80
2022-12-08T19:02:47.824Z,1.77
2022-12-08T19:05:50.478Z,1.60
2022-12-08T19:08:53.188Z,3.40
2022-12-08T19:11:56.379Z,3.03
2022-12-08T19:14:58.318Z,2.80
2022-12-08T19:18:00.604Z,3.13
2022-12-08T19:21:02.581Z,2.60
2022-12-08T19:24:05.610Z,2.10
2022-12-08T19:27:07.550Z,2.43
2022-12-08T19:30:10.591Z,2.77
2022-12-08T19:33:13.018Z,2.80
2022-12-08T19:36:18.321Z,2.60
2022-12-08T19:39:41.310Z,1.80
2022-12-08T19:43:02.979Z,1.70
2022-12-08T19:46:05.199Z,1.43
2022-12-08T19:49:07.417Z,1.50
2022-12-08T19:52:09.664Z,2.20
2022-12-08T19:55:12.068Z,1.70
2022-12-08T19:58:14.086Z,1.83
2022-12-08T20:01:16.836Z,1.50
2022-12-08T20:04:19.123Z,1.30
2022-12-08T20:07:21.127Z,1.33
2022-12-08T20:10:29.077Z,1.43
2022-12-08T20:13:45.441Z,1.30
2022-12-08T20:16:48.190Z,1.37
2022-12-08T20:19:50.473Z,3.40
2022-12-08T20:22:52.316Z,1.70
2022-12-08T20:25:54.300Z,2.03
2022-12-08T20:28:57.957Z,1.83
2022-12-08T20:32:03.549Z,1.40
2022-12-08T20:35:06.081Z,1.43
2022-12-08T20:38:08.884Z,1.20
2022-12-08T20:41:10.860Z,1.43
2022-12-08T20:44:17.795Z,2.07
2022-12-08T20:47:20.372Z,1.60
2022-12-08T20:50:22.511Z,1.60
2022-12-08T20:53:26.816Z,1.83
2022-12-08T20:56:29.172Z,1.43
2022-12-08T20:59:31.257Z,1.63
2022-12-08T21:02:33.389Z,1.70
2022-12-08T21:05:37.233Z,1.70
2022-12-08T21:08:39.995Z,1.10
2022-12-08T21:11:42.513Z,1.17
2022-12-08T21:14:44.496Z,1.47
2022-12-08T21:17:47.577Z,1.40
2022-12-08T21:20:50.568Z,1.40
2022-12-08T21:23:52.706Z,1.90
2022-12-08T21:26:54.565Z,1.63
2022-12-08T21:29:56.519Z,1.53
2022-12-08T21:32:58.549Z,1.47
2022-12-08T21:36:10.776Z,1.60
2022-12-08T21:39:13.000Z,1.60
2022-12-08T21:42:34.917Z,1.23
2022-12-08T21:45:37.115Z,1.50
2022-12-08T21:48:39.330Z,1.07
2022-12-08T21:51:42.505Z,1.63
2022-12-08T21:54:44.648Z,1.20
2022-12-08T21:57:46.671Z,1.60
2022-12-08T22:00:49.016Z,1.17
2022-12-08T22:03:51.173Z,1.30
2022-12-08T22:06:53.294Z,1.90
2022-12-08T22:09:55.725Z,1.50
2022-12-08T22:12:57.867Z,1.60
2022-12-08T22:16:01.572Z,1.27
2022-12-08T22:19:03.719Z,1.30
2022-12-08T22:22:05.947Z,1.60
2022-12-08T22:25:12.074Z,1.73
2022-12-08T22:28:14.093Z,1.40
2022-12-08T22:31:20.160Z,0.93
2022-12-08T22:34:22.039Z,1.30
2022-12-08T22:37:24.282Z,1.03
2022-12-08T22:40:26.241Z,1.33
2022-12-08T22:43:28.741Z,1.00
2022-12-08T22:46:31.819Z,1.30
2022-12-08T22:49:35.112Z,1.40
2022-12-08T22:52:36.959Z,1.60
2022-12-08T22:55:44.793Z,1.57
2022-12-08T22:58:48.022Z,1.30
2022-12-08T23:01:49.928Z,1.80
2022-12-08T23:04:56.210Z,1.13
2022-12-08T23:07:58.718Z,1.33
2022-12-08T23:11:01.091Z,1.17
2022-12-08T23:14:03.121Z,1.50
2022-12-08T23:17:05.158Z,1.00
2022-12-08T23:20:08.282Z,1.27
2022-12-08T23:23:10.430Z,1.53
2022-12-08T23:26:35.533Z,1.10
2022-12-08T23:29:37.596Z,1.07
2022-12-08T23:32:39.591Z,1.40
2022-12-08T23:35:41.718Z,1.50
2022-12-08T23:38:44.259Z,1.40
2022-12-08T23:41:46.326Z,1.30
2022-12-08T23:44:48.553Z,1.07
2022-12-08T23:47:50.375Z,1.07
2022-12-08T23:50:52.338Z,1.20
2022-12-08T23:53:54.299Z,0.93
2022-12-08T23:56:56.361Z,0.83
2022-12-08T23:59:58.385Z,1.40
